Time;durP1;ratioP1;P1;durP2;ratioP2;P2;SDS_P1;SDS_P2;PMS_P1;PMS_P2;Temp;Humidity;BMP_temperature;BMP_pressure;BME280_temperature;BME280_humidity;BME280_pressure;Samples;Min_cycle;Max_cycle;Signal;HPM_P1;HPM_P2
2021/07/24 00:01:06;;;;;;;8.48;6.07;;;25.50;56.70;;;;;;5071048;28;20102;-57
2021/07/24 00:03:32;;;;;;;8.30;5.78;;;25.50;56.70;;;;;;5071557;28;20033;-57
2021/07/24 00:05:58;;;;;;;7.43;5.90;;;25.50;56.70;;;;;;5069284;28;20036;-58
2021/07/24 00:08:23;;;;;;;8.20;5.68;;;25.50;56.70;;;;;;5070900;28;20033;-57
2021/07/24 00:10:49;;;;;;;6.22;5.10;;;25.50;56.70;;;;;;5070723;28;20040;-58
2021/07/24 00:13:15;;;;;;;8.27;5.90;;;25.50;56.70;;;;;;5070081;28;20024;-58
2021/07/24 00:15:40;;;;;;;7.40;5.63;;;25.50;56.70;;;;;;5070792;28;20119;-57
2021/07/24 00:18:06;;;;;;;7.82;6.03;;;25.40;56.60;;;;;;5070144;28;20120;-57
2021/07/24 00:20:31;;;;;;;6.97;5.45;;;25.40;56.60;;;;;;5070562;28;20107;-58
2021/07/24 00:22:57;;;;;;;8.75;6.10;;;25.40;56.70;;;;;;5069828;28;20384;-61
2021/07/24 00:25:23;;;;;;;6.43;5.18;;;25.40;56.70;;;;;;5070746;28;20032;-57
2021/07/24 00:27:48;;;;;;;8.48;5.85;;;25.40;56.70;;;;;;5070739;28;20454;-57
2021/07/24 00:30:15;;;;;;;7.95;5.72;;;25.40;56.70;;;;;;5070186;28;20051;-58
2021/07/24 00:32:40;;;;;;;7.72;5.65;;;25.40;56.70;;;;;;5070749;28;20032;-58
2021/07/24 00:35:07;;;;;;;7.78;5.63;;;25.40;56.70;;;;;;5069988;28;20037;-57
2021/07/24 00:37:32;;;;;;;7.15;5.55;;;25.40;56.70;;;;;;5072036;28;20029;-58
2021/07/24 00:39:58;;;;;;;7.78;5.85;;;25.40;56.80;;;;;;5073697;28;20375;-59
2021/07/24 00:42:27;;;;;;;6.80;5.55;;;25.40;56.80;;;;;;5073942;28;20036;-61
2021/07/24 00:45:00;;;;;;;7.80;5.70;;;25.40;56.70;;;;;;5066307;28;20457;-58
2021/07/24 00:47:38;;;;;;;7.75;5.75;;;25.40;56.70;;;;;;5074346;28;20035;-58
2021/07/24 00:50:04;;;;;;;7.50;5.68;;;25.40;56.70;;;;;;5072951;28;20028;-58
2021/07/24 00:52:30;;;;;;;7.80;6.10;;;25.40;56.80;;;;;;5073872;28;20028;-58
2021/07/24 00:54:57;;;;;;;6.85;5.43;;;25.40;56.80;;;;;;5073489;28;20024;-65
2021/07/24 00:57:23;;;;;;;7.20;5.97;;;25.40;56.70;;;;;;5064545;28;20020;-58
2021/07/24 00:59:49;;;;;;;6.45;5.15;;;25.40;56.80;;;;;;5071838;28;20128;-58
2021/07/24 01:02:14;;;;;;;7.70;5.68;;;25.30;56.70;;;;;;5054905;28;20620;-58
2021/07/24 01:04:40;;;;;;;8.48;6.22;;;25.30;56.70;;;;;;5055920;28;20056;-58
2021/07/24 01:07:09;;;;;;;6.97;5.45;;;25.30;56.70;;;;;;5072481;28;20032;-58
2021/07/24 01:09:34;;;;;;;7.15;5.68;;;25.30;57.40;;;;;;5073618;28;20091;-58
2021/07/24 01:12:03;;;;;;;10.18;5.75;;;25.30;56.70;;;;;;5072839;28;20067;-58
2021/07/24 01:14:33;;;;;;;7.22;5.60;;;25.30;56.70;;;;;;5073658;28;20025;-59
2021/07/24 01:17:00;;;;;;;9.00;5.82;;;25.30;56.70;;;;;;5072117;28;20043;-63
2021/07/24 01:19:27;;;;;;;6.90;5.60;;;25.30;56.70;;;;;;5073387;28;20028;-58
2021/07/24 01:21:53;;;;;;;7.20;5.43;;;25.30;56.80;;;;;;5071266;28;20035;-58
2021/07/24 01:24:19;;;;;;;6.80;5.28;;;25.30;56.90;;;;;;5072481;28;20036;-58
2021/07/24 01:26:45;;;;;;;8.15;5.65;;;25.30;56.90;;;;;;5072927;28;20037;-59
2021/07/24 01:29:16;;;;;;;8.60;5.78;;;25.30;57.00;;;;;;5071981;28;20482;-58
2021/07/24 01:31:42;;;;;;;6.95;5.80;;;25.30;57.00;;;;;;5072211;28;20099;-58
2021/07/24 01:34:09;;;;;;;8.35;5.70;;;25.30;57.00;;;;;;5072423;28;20039;-58
2021/07/24 01:36:34;;;;;;;7.90;5.60;;;25.30;57.00;;;;;;5072454;28;20078;-58
2021/07/24 01:39:00;;;;;;;7.80;5.80;;;25.30;57.00;;;;;;5071490;28;20029;-61
2021/07/24 01:41:26;;;;;;;8.18;5.63;;;25.30;57.00;;;;;;5071605;28;20434;-56
2021/07/24 01:43:52;;;;;;;7.30;6.22;;;25.30;57.00;;;;;;5072633;28;20047;-56
2021/07/24 01:46:17;;;;;;;8.32;5.72;;;25.30;57.00;;;;;;5054010;28;20020;-56
2021/07/24 01:48:52;;;;;;;8.52;6.20;;;25.30;57.10;;;;;;5072171;28;20058;-55
2021/07/24 01:54:34;;;;;;;7.80;5.93;;;25.30;57.10;;;;;;5070577;28;20078;-56
2021/07/24 01:57:07;;;;;;;7.53;5.78;;;25.30;57.00;;;;;;5072370;28;20456;-53
2021/07/24 01:59:45;;;;;;;9.10;6.03;;;25.30;57.20;;;;;;5072070;28;20070;-56
2021/07/24 02:02:14;;;;;;;8.32;6.18;;;25.30;57.20;;;;;;5064759;28;20043;-56
2021/07/24 02:04:50;;;;;;;14.57;7.68;;;25.30;57.10;;;;;;5072812;28;20021;-57
2021/07/24 02:07:17;;;;;;;10.73;6.85;;;25.30;56.90;;;;;;5070966;28;20033;-59
2021/07/24 02:09:44;;;;;;;10.57;7.00;;;25.30;56.60;;;;;;5053061;28;20025;-56
2021/07/24 02:12:11;;;;;;;8.95;6.93;;;25.30;56.40;;;;;;5069751;28;20481;-56
2021/07/24 02:14:36;;;;;;;10.77;7.22;;;25.30;56.40;;;;;;5071295;28;20485;-58
2021/07/24 02:17:02;;;;;;;8.35;6.75;;;25.20;56.10;;;;;;5069790;28;20027;-57
2021/07/24 02:19:31;;;;;;;10.02;6.63;;;25.20;56.10;;;;;;5070241;28;20029;-59
2021/07/24 02:21:57;;;;;;;9.30;7.00;;;25.20;56.50;;;;;;5068575;28;20035;-56
2021/07/24 02:24:22;;;;;;;9.93;7.03;;;25.20;56.30;;;;;;5070183;28;20046;-57
2021/07/24 02:26:48;;;;;;;12.20;8.05;;;25.20;56.20;;;;;;5070687;28;20473;-58
2021/07/24 02:29:14;;;;;;;9.57;7.95;;;25.20;56.10;;;;;;5069679;28;20051;-57
2021/07/24 02:31:39;;;;;;;12.38;7.32;;;25.20;56.00;;;;;;5070840;28;20063;-55
2021/07/24 02:34:05;;;;;;;9.90;7.03;;;25.20;55.90;;;;;;5070027;28;20067;-57
2021/07/24 02:36:30;;;;;;;10.60;7.25;;;25.20;55.90;;;;;;5070608;28;20035;-57
2021/07/24 02:38:56;;;;;;;9.77;7.70;;;25.10;55.80;;;;;;5070392;28;20439;-59
2021/07/24 02:41:22;;;;;;;10.35;7.20;;;25.10;55.70;;;;;;5069712;28;20024;-56
2021/07/24 02:43:47;;;;;;;8.80;6.95;;;25.10;55.70;;;;;;5070446;28;20128;-55
2021/07/24 02:46:19;;;;;;;10.60;7.80;;;25.10;55.80;;;;;;5068080;28;20035;-56
2021/07/24 02:48:46;;;;;;;11.20;8.05;;;25.10;55.70;;;;;;5070583;28;20036;-56
2021/07/24 02:51:13;;;;;;;10.25;7.80;;;25.10;55.80;;;;;;5068769;28;20105;-57
2021/07/24 02:53:39;;;;;;;10.40;7.18;;;25.10;55.70;;;;;;5070127;28;20028;-57
2021/07/24 02:56:04;;;;;;;10.38;7.47;;;25.10;55.70;;;;;;5070315;28;20028;-56
2021/07/24 02:58:30;;;;;;;9.18;7.22;;;25.10;55.70;;;;;;5053985;28;20059;-56
2021/07/24 03:00:56;;;;;;;10.07;7.57;;;25.10;55.70;;;;;;5071360;28;20111;-58
2021/07/24 03:03:21;;;;;;;9.75;7.53;;;25.00;55.70;;;;;;5070403;28;20041;-58
2021/07/24 03:05:48;;;;;;;9.23;7.45;;;25.00;55.80;;;;;;5071813;28;20060;-55
2021/07/24 03:08:14;;;;;;;10.18;6.93;;;25.00;55.70;;;;;;5070935;28;20036;-56
2021/07/24 03:10:40;;;;;;;8.85;6.93;;;25.00;55.80;;;;;;5070914;28;20065;-56
2021/07/24 03:13:05;;;;;;;10.00;8.10;;;25.00;55.80;;;;;;5070513;28;20055;-57
2021/07/24 03:15:31;;;;;;;8.98;7.05;;;25.00;55.80;;;;;;5071629;28;20139;-55
2021/07/24 03:17:57;;;;;;;9.10;7.03;;;25.00;55.90;;;;;;5071313;28;20032;-55
2021/07/24 03:20:22;;;;;;;9.60;7.45;;;25.00;55.80;;;;;;5070281;28;20476;-56
2021/07/24 03:22:48;;;;;;;9.45;7.20;;;25.00;55.70;;;;;;5071337;28;20047;-55
2021/07/24 03:25:14;;;;;;;11.88;7.88;;;25.00;56.40;;;;;;5070169;28;20051;-57
2021/07/24 03:27:39;;;;;;;8.43;6.95;;;25.00;55.60;;;;;;5071142;28;20390;-56
2021/07/24 03:30:07;;;;;;;11.00;8.27;;;25.00;55.80;;;;;;5052675;28;20385;-55
2021/07/24 03:32:33;;;;;;;11.50;7.90;;;25.00;55.70;;;;;;5071495;28;20034;-56
2021/07/24 03:34:58;;;;;;;13.13;7.93;;;25.00;56.30;;;;;;5070830;28;20111;-61
2021/07/24 03:37:24;;;;;;;10.27;7.95;;;25.00;55.70;;;;;;5069792;28;20032;-58
2021/07/24 03:39:50;;;;;;;10.27;7.45;;;25.00;55.60;;;;;;5071100;28;20462;-56
2021/07/24 03:42:15;;;;;;;10.30;7.50;;;25.00;55.60;;;;;;5070389;28;20132;-57
2021/07/24 03:44:41;;;;;;;9.80;7.38;;;25.00;55.70;;;;;;5071169;28;20104;-55
2021/07/24 03:47:06;;;;;;;11.30;8.63;;;25.00;55.70;;;;;;5070469;28;20447;-56
2021/07/24 03:49:32;;;;;;;13.07;8.85;;;25.00;55.60;;;;;;5071401;28;20047;-58
2021/07/24 03:51:58;;;;;;;11.32;8.60;;;25.00;55.70;;;;;;5071133;28;20029;-56
2021/07/24 03:54:23;;;;;;;13.00;9.43;;;25.00;55.70;;;;;;5070422;28;20405;-56
2021/07/24 03:56:49;;;;;;;12.18;7.95;;;25.00;55.80;;;;;;5071110;28;20527;-56
2021/07/24 03:59:14;;;;;;;12.25;8.45;;;25.00;55.80;;;;;;5070089;28;20500;-56
2021/07/24 04:01:43;;;;;;;11.40;8.45;;;25.00;55.70;;;;;;5070776;28;20131;-56
2021/07/24 04:04:08;;;;;;;13.23;8.85;;;25.00;55.80;;;;;;5070190;28;20090;-59
2021/07/24 04:06:34;;;;;;;11.38;8.23;;;25.00;55.90;;;;;;5070953;28;20059;-55
2021/07/24 04:09:01;;;;;;;10.02;8.18;;;25.00;55.90;;;;;;5070442;28;20155;-62
2021/07/24 04:11:28;;;;;;;11.68;8.68;;;25.00;56.00;;;;;;5070664;28;20040;-56
2021/07/24 04:13:54;;;;;;;12.23;8.20;;;25.00;56.00;;;;;;5060316;28;20037;-56
2021/07/24 04:16:20;;;;;;;13.68;9.73;;;25.00;56.00;;;;;;5057297;28;20369;-55
2021/07/24 04:18:46;;;;;;;10.98;9.05;;;25.00;56.00;;;;;;5066664;28;20449;-55
2021/07/24 04:21:13;;;;;;;11.80;8.20;;;24.90;55.90;;;;;;5073945;28;20029;-56
2021/07/24 04:23:38;;;;;;;11.38;9.10;;;25.00;56.10;;;;;;5074659;28;20093;-56
2021/07/24 04:26:04;;;;;;;10.70;8.52;;;25.00;56.00;;;;;;5073764;28;20426;-62
2021/07/24 04:28:30;;;;;;;11.95;8.73;;;25.00;56.00;;;;;;5056745;28;20032;-55
2021/07/24 04:30:55;;;;;;;12.10;8.45;;;24.90;56.00;;;;;;5074480;28;20029;-55
2021/07/24 04:33:21;;;;;;;15.13;8.75;;;24.90;55.90;;;;;;5073930;28;20039;-54
2021/07/24 04:35:48;;;;;;;12.07;8.45;;;24.90;56.00;;;;;;5074298;28;20111;-54
2021/07/24 04:38:15;;;;;;;11.18;8.70;;;24.90;55.90;;;;;;5065609;28;20111;-56
2021/07/24 04:40:41;;;;;;;11.73;8.23;;;24.90;55.90;;;;;;5074645;28;20074;-55
2021/07/24 04:43:07;;;;;;;11.88;8.60;;;24.90;55.90;;;;;;5072831;28;20041;-53
2021/07/24 04:45:32;;;;;;;12.73;8.48;;;24.90;56.00;;;;;;5074271;28;20021;-55
2021/07/24 04:47:58;;;;;;;13.52;9.10;;;24.90;56.00;;;;;;5074310;28;20024;-56
2021/07/24 04:50:24;;;;;;;10.43;8.25;;;24.90;56.00;;;;;;5073102;28;20021;-55
2021/07/24 04:52:50;;;;;;;12.80;9.35;;;24.90;56.00;;;;;;5074005;28;20112;-56
2021/07/24 04:55:16;;;;;;;12.35;8.38;;;24.90;56.00;;;;;;5073431;28;20081;-55
2021/07/24 04:57:43;;;;;;;13.90;8.68;;;24.90;56.10;;;;;;5073790;28;20479;-57
2021/07/24 05:00:10;;;;;;;10.68;8.18;;;24.90;56.10;;;;;;5072723;28;20106;-55
2021/07/24 05:02:37;;;;;;;11.75;8.02;;;24.90;56.20;;;;;;5074017;28;20032;-55
2021/07/24 05:05:03;;;;;;;13.25;9.45;;;24.90;56.10;;;;;;5073660;28;20031;-62
2021/07/24 05:07:31;;;;;;;11.98;8.82;;;24.90;56.10;;;;;;5073360;28;20028;-56
2021/07/24 05:09:57;;;;;;;14.60;8.50;;;24.90;56.20;;;;;;5055291;28;20033;-58
2021/07/24 05:12:22;;;;;;;13.77;8.70;;;24.90;56.20;;;;;;5072690;28;20040;-54
2021/07/24 05:14:48;;;;;;;12.75;9.27;;;24.90;56.30;;;;;;5073860;28;20031;-54
2021/07/24 05:17:14;;;;;;;11.25;9.00;;;24.90;56.20;;;;;;5072925;28;20031;-57
2021/07/24 05:19:45;;;;;;;13.70;9.10;;;24.90;56.20;;;;;;5073646;28;20115;-55
2021/07/24 05:22:12;;;;;;;12.50;8.43;;;24.90;56.20;;;;;;5072762;28;20060;-54
2021/07/24 05:24:46;;;;;;;13.18;8.73;;;24.90;56.20;;;;;;5072462;28;20028;-54
2021/07/24 05:27:13;;;;;;;12.25;8.63;;;24.90;56.20;;;;;;5065218;28;20035;-55
2021/07/24 05:29:39;;;;;;;12.20;8.75;;;24.90;56.20;;;;;;5073332;28;20040;-53
2021/07/24 05:32:05;;;;;;;11.95;9.15;;;24.90;56.20;;;;;;5073006;28;20031;-59
2021/07/24 05:34:31;;;;;;;15.68;9.95;;;24.90;56.30;;;;;;5073026;28;20025;-56
2021/07/24 05:36:56;;;;;;;14.05;8.80;;;24.90;56.40;;;;;;5073418;28;20029;-56
2021/07/24 05:39:22;;;;;;;14.05;8.50;;;24.90;56.40;;;;;;5072673;28;20028;-56
2021/07/24 05:41:48;;;;;;;12.63;9.05;;;24.90;56.40;;;;;;5054999;28;20544;-56
2021/07/24 05:44:17;;;;;;;11.55;8.65;;;24.90;56.50;;;;;;5072232;28;20036;-58
2021/07/24 05:46:44;;;;;;;11.02;7.97;;;24.90;56.50;;;;;;5073113;28;20083;-57
2021/07/24 05:49:10;;;;;;;13.02;8.98;;;24.90;56.60;;;;;;5072447;28;20090;-57
2021/07/24 05:51:35;;;;;;;12.50;8.23;;;24.90;56.60;;;;;;5072967;28;20412;-56
2021/07/24 05:54:01;;;;;;;12.75;8.35;;;24.90;56.60;;;;;;5072898;28;20527;-58
2021/07/24 05:56:27;;;;;;;12.80;8.45;;;24.90;56.70;;;;;;5072141;28;20572;-58
2021/07/24 05:58:52;;;;;;;13.38;9.02;;;24.90;56.70;;;;;;5072719;28;20111;-58
2021/07/24 06:01:18;;;;;;;11.48;8.77;;;24.90;56.70;;;;;;5072058;28;20393;-54
2021/07/24 06:03:43;;;;;;;13.77;8.85;;;24.90;56.70;;;;;;5072749;28;20071;-62
2021/07/24 06:06:09;;;;;;;12.80;9.43;;;25.00;56.90;;;;;;5053366;28;20051;-58
2021/07/24 06:08:35;;;;;;;14.23;9.73;;;25.00;57.00;;;;;;5072777;28;20028;-55
2021/07/24 06:11:02;;;;;;;14.88;9.75;;;24.90;56.90;;;;;;5072778;28;20126;-53
2021/07/24 06:13:28;;;;;;;11.70;8.43;;;24.90;56.90;;;;;;5071693;28;20651;-56
2021/07/24 06:15:54;;;;;;;13.70;8.65;;;24.90;56.90;;;;;;5072269;28;20068;-56
2021/07/24 06:18:20;;;;;;;14.02;9.32;;;24.90;57.00;;;;;;5071512;28;20492;-57
2021/07/24 06:20:47;;;;;;;12.63;8.82;;;24.90;57.10;;;;;;5072375;28;20075;-56
2021/07/24 06:23:15;;;;;;;13.20;8.90;;;24.90;57.20;;;;;;5071218;28;20363;-55
2021/07/24 06:25:41;;;;;;;13.15;9.13;;;24.90;57.30;;;;;;5072500;28;20017;-58
2021/07/24 06:28:07;;;;;;;12.75;9.10;;;24.90;57.30;;;;;;5071878;28;20024;-62
2021/07/24 06:30:34;;;;;;;14.35;9.45;;;24.90;57.40;;;;;;5072268;28;20118;-56
2021/07/24 06:32:59;;;;;;;12.40;8.85;;;24.90;57.50;;;;;;5072008;28;20070;-56
2021/07/24 06:35:25;;;;;;;11.60;8.98;;;24.90;57.50;;;;;;5070853;28;20185;-56
2021/07/24 06:37:52;;;;;;;12.10;8.98;;;24.90;57.50;;;;;;5071925;28;20056;-56
2021/07/24 06:40:18;;;;;;;11.48;8.93;;;24.90;57.60;;;;;;5052927;28;20039;-58
2021/07/24 06:42:43;;;;;;;14.98;9.15;;;25.00;57.70;;;;;;5071904;28;20044;-56
2021/07/24 06:45:09;;;;;;;17.65;9.65;;;24.90;57.70;;;;;;5070773;28;20022;-59
2021/07/24 06:47:35;;;;;;;11.25;8.32;;;24.90;57.70;;;;;;5071825;28;20032;-57
2021/07/24 06:50:01;;;;;;;15.63;8.60;;;24.90;57.80;;;;;;5072288;28;20020;-58
2021/07/24 06:52:26;;;;;;;13.90;9.00;;;25.00;57.80;;;;;;5070922;28;20174;-56
2021/07/24 06:54:52;;;;;;;14.57;8.55;;;25.00;57.70;;;;;;5071368;28;20025;-54
2021/07/24 06:57:17;;;;;;;12.52;9.40;;;25.00;57.60;;;;;;5070646;28;20100;-56
2021/07/24 06:59:43;;;;;;;15.57;9.23;;;25.00;57.60;;;;;;5071628;28;20393;-57
2021/07/24 07:02:10;;;;;;;12.63;9.05;;;25.10;57.80;;;;;;5070972;28;20025;-62
2021/07/24 07:04:36;;;;;;;15.48;9.27;;;25.10;57.60;;;;;;5071702;28;20107;-55
2021/07/24 07:07:03;;;;;;;13.68;9.45;;;25.10;58.20;;;;;;5053568;28;20119;-54
2021/07/24 07:09:28;;;;;;;13.60;9.50;;;24.90;58.60;;;;;;5070716;28;20036;-55
2021/07/24 07:11:57;;;;;;;14.95;9.38;;;24.70;59.30;;;;;;5071389;28;20032;-56
2021/07/24 07:14:24;;;;;;;15.25;10.40;;;24.60;59.60;;;;;;5070178;28;20390;-57
2021/07/24 07:16:50;;;;;;;14.65;9.40;;;24.60;60.40;;;;;;5063076;28;20029;-54
2021/07/24 07:19:15;;;;;;;13.20;9.93;;;24.60;59.90;;;;;;5068985;28;20024;-54
2021/07/24 07:21:41;;;;;;;17.67;10.18;;;24.60;60.20;;;;;;5067378;28;20085;-55
2021/07/24 07:24:07;;;;;;;13.20;9.23;;;24.60;59.90;;;;;;5067208;28;20060;-60
2021/07/24 07:26:33;;;;;;;16.17;10.55;;;24.50;60.40;;;;;;5052658;28;20435;-55
2021/07/24 07:29:03;;;;;;;12.63;9.95;;;24.50;60.90;;;;;;5071151;28;20032;-54
2021/07/24 07:31:32;;;;;;;14.90;9.95;;;24.40;60.80;;;;;;5052174;28;20618;-58
2021/07/24 07:33:58;;;;;;;15.20;9.85;;;24.40;60.90;;;;;;5071023;28;20024;-53
2021/07/24 07:36:23;;;;;;;15.18;9.35;;;24.50;60.70;;;;;;5070267;28;20033;-54
2021/07/24 07:38:50;;;;;;;15.07;8.77;;;24.50;60.50;;;;;;5071113;28;20032;-53
2021/07/24 07:41:17;;;;;;;13.18;8.85;;;24.70;60.10;;;;;;5070901;28;20547;-53
2021/07/24 07:43:43;;;;;;;13.05;8.75;;;24.70;60.20;;;;;;5071015;28;20032;-50
2021/07/24 07:46:09;;;;;;;15.38;9.35;;;24.70;60.20;;;;;;5070710;28;20032;-58
2021/07/24 07:48:35;;;;;;;11.27;8.45;;;24.60;60.60;;;;;;5074478;28;20119;-48
2021/07/24 07:51:01;;;;;;;13.98;9.63;;;24.70;60.80;;;;;;5075392;28;20024;-48
2021/07/24 07:53:27;;;;;;;13.25;9.55;;;24.70;61.20;;;;;;5074128;28;20032;-50
2021/07/24 07:55:52;;;;;;;14.02;9.77;;;24.50;61.30;;;;;;5075319;28;20028;-53
2021/07/24 07:58:18;;;;;;;14.02;9.15;;;24.50;61.50;;;;;;5074359;28;20454;-54
2021/07/24 08:00:43;;;;;;;13.57;10.35;;;24.50;61.60;;;;;;5074669;28;20057;-53
2021/07/24 08:03:09;;;;;;;14.57;9.82;;;24.30;62.10;;;;;;5056105;28;20245;-58
2021/07/24 08:05:35;;;;;;;14.18;9.98;;;24.30;61.90;;;;;;5074220;28;20108;-51
2021/07/24 08:08:00;;;;;;;15.32;9.13;;;24.50;61.60;;;;;;5069722;28;20048;-54
2021/07/24 08:10:26;;;;;;;15.65;9.70;;;24.40;61.60;;;;;;5075594;28;20060;-54
2021/07/24 08:12:52;;;;;;;12.40;9.43;;;24.30;61.80;;;;;;5076031;28;20082;-52
2021/07/24 08:15:19;;;;;;;17.17;9.98;;;24.20;62.50;;;;;;5074319;28;20070;-52
2021/07/24 08:17:44;;;;;;;15.55;9.30;;;24.20;62.40;;;;;;5074736;28;20025;-56
2021/07/24 08:20:10;;;;;;;11.70;8.57;;;24.30;62.10;;;;;;5074169;28;20032;-60
2021/07/24 08:22:36;;;;;;;14.55;9.77;;;24.30;61.80;;;;;;5073852;28;20043;-55
2021/07/24 08:25:03;;;;;;;11.70;8.30;;;24.30;61.30;;;;;;5074035;28;20024;-54
2021/07/24 08:27:30;;;;;;;15.68;9.23;;;24.30;61.10;;;;;;5055375;28;20466;-54
2021/07/24 08:29:56;;;;;;;13.13;8.95;;;24.40;61.30;;;;;;5074537;28;20044;-51
2021/07/24 08:32:22;;;;;;;12.63;8.95;;;24.40;62.20;;;;;;5073240;28;20025;-45
2021/07/24 08:34:51;;;;;;;13.50;9.20;;;24.50;61.80;;;;;;5074321;28;20025;-45
2021/07/24 08:37:18;;;;;;;13.32;8.75;;;24.60;61.20;;;;;;5073813;28;20027;-45
2021/07/24 08:39:43;;;;;;;12.23;8.40;;;24.80;60.70;;;;;;5055254;28;20033;-46
2021/07/24 08:42:25;;;;;;;11.18;7.95;;;24.80;60.60;;;;;;5075984;28;20462;-48
2021/07/24 08:44:51;;;;;;;12.55;7.95;;;24.90;60.40;;;;;;5068801;28;20379;-43
2021/07/24 08:47:16;;;;;;;13.88;9.23;;;24.90;60.30;;;;;;5075163;28;20021;-48
2021/07/24 08:49:42;;;;;;;12.60;8.30;;;24.90;60.50;;;;;;5075145;28;20386;-46
2021/07/24 08:52:13;;;;;;;11.20;8.35;;;24.90;60.30;;;;;;5074546;28;20052;-47
2021/07/24 08:54:42;;;;;;;11.67;7.90;;;24.90;60.30;;;;;;5074199;28;20070;-45
2021/07/24 08:57:08;;;;;;;13.70;8.63;;;25.00;60.30;;;;;;5073571;28;20028;-49
2021/07/24 08:59:36;;;;;;;14.38;8.55;;;25.00;60.10;;;;;;5073183;28;20628;-46
2021/07/24 09:02:04;;;;;;;12.00;8.60;;;25.00;60.20;;;;;;5074021;28;20034;-48
2021/07/24 09:04:31;;;;;;;9.85;7.70;;;25.00;60.00;;;;;;5073366;28;20369;-45
2021/07/24 09:07:05;;;;;;;12.68;8.30;;;25.00;60.00;;;;;;5074058;28;20028;-44
2021/07/24 09:09:34;;;;;;;10.38;8.25;;;25.00;60.00;;;;;;5072772;28;20469;-44
2021/07/24 09:12:00;;;;;;;12.18;8.05;;;25.00;60.30;;;;;;5074248;28;20485;-44
2021/07/24 09:14:25;;;;;;;12.38;8.20;;;25.00;60.20;;;;;;5072989;28;20025;-55
2021/07/24 09:16:52;;;;;;;16.02;8.75;;;25.00;60.20;;;;;;5092197;28;20729;-43
2021/07/24 09:19:18;;;;;;;12.80;9.02;;;25.00;60.50;;;;;;5093435;28;20714;-45
2021/07/24 09:21:43;;;;;;;12.45;8.25;;;25.10;60.40;;;;;;5094355;28;20434;-44
2021/07/24 09:24:22;;;;;;;14.48;8.70;;;25.10;60.20;;;;;;5093993;28;20028;-44
2021/07/24 09:26:48;;;;;;;12.80;8.50;;;25.10;60.30;;;;;;5094074;28;20024;-44
2021/07/24 09:29:18;;;;;;;13.07;8.30;;;25.20;60.30;;;;;;5093816;28;20032;-56
2021/07/24 09:31:45;;;;;;;13.45;8.45;;;25.20;60.20;;;;;;5087132;28;20047;-43
2021/07/24 09:34:13;;;;;;;15.07;8.15;;;25.20;60.10;;;;;;5072838;28;20032;-45
2021/07/24 09:36:40;;;;;;;13.05;8.10;;;25.20;60.10;;;;;;5072262;28;20029;-43
2021/07/24 09:39:14;;;;;;;13.75;8.32;;;25.30;60.20;;;;;;5073172;28;20116;-43
2021/07/24 09:41:42;;;;;;;15.77;8.50;;;25.30;60.10;;;;;;5072353;28;20067;-44
2021/07/24 09:44:08;;;;;;;11.88;7.80;;;25.30;60.40;;;;;;5072726;28;20037;-45
2021/07/24 09:46:34;;;;;;;13.40;8.73;;;25.30;60.20;;;;;;5071604;28;20032;-45
2021/07/24 09:49:35;;;;;;;10.10;8.02;;;25.30;60.20;;;;;;5070334;28;20374;-46
2021/07/24 09:52:17;;;;;;;13.18;9.25;;;25.30;60.30;;;;;;5057297;28;20037;-45
2021/07/24 09:54:42;;;;;;;13.70;9.00;;;25.30;60.00;;;;;;5072391;28;20079;-46
2021/07/24 09:57:08;;;;;;;13.80;8.93;;;25.40;60.20;;;;;;5072168;28;20548;-44
2021/07/24 09:59:35;;;;;;;14.18;8.68;;;25.40;60.00;;;;;;5071551;28;20035;-50
2021/07/24 10:02:03;;;;;;;13.52;8.80;;;25.40;60.00;;;;;;5072082;28;20025;-45
2021/07/24 10:04:38;;;;;;;16.35;9.43;;;25.40;59.80;;;;;;5071441;28;20483;-43
2021/07/24 10:07:08;;;;;;;13.55;8.80;;;25.50;60.00;;;;;;5072513;28;20063;-45
2021/07/24 10:09:37;;;;;;;14.02;8.32;;;25.50;60.00;;;;;;5071213;28;20032;-44
2021/07/24 10:12:05;;;;;;;16.55;8.88;;;25.60;59.70;;;;;;5072515;28;20036;-43
2021/07/24 10:14:31;;;;;;;13.70;9.30;;;25.60;59.70;;;;;;5071604;28;20085;-50
2021/07/24 10:16:59;;;;;;;14.07;8.38;;;25.70;59.80;;;;;;5072455;28;20029;-53
2021/07/24 10:19:26;;;;;;;16.13;9.75;;;25.70;59.60;;;;;;5070786;28;20029;-54
2021/07/24 10:21:53;;;;;;;17.17;9.07;;;25.80;59.50;;;;;;5072513;28;20036;-52
2021/07/24 10:24:20;;;;;;;14.77;8.68;;;25.80;59.40;;;;;;5070990;28;20037;-57
2021/07/24 10:26:54;;;;;;;12.48;8.68;;;25.90;59.30;;;;;;5072353;28;20051;-53
2021/07/24 10:29:32;;;;;;;13.40;8.60;;;26.00;59.10;;;;;;5071239;28;20029;-47
2021/07/24 10:32:10;;;;;;;12.02;9.10;;;26.00;59.40;;;;;;5071732;28;20036;-52
2021/07/24 10:34:47;;;;;;;12.38;8.57;;;26.00;58.70;;;;;;5070958;28;20020;-53
2021/07/24 10:37:41;;;;;;;11.80;8.52;;;26.10;58.70;;;;;;5060716;28;20271;-54
2021/07/24 10:40:17;;;;;;;14.70;8.48;;;26.10;58.60;;;;;;5054398;28;20118;-48
2021/07/24 10:42:49;;;;;;;14.32;8.32;;;26.10;57.80;;;;;;5062832;28;20036;-51
2021/07/24 10:45:37;;;;;;;13.85;8.18;;;26.10;57.60;;;;;;5071421;28;20025;-46
2021/07/24 10:48:15;;;;;;;11.85;7.57;;;26.20;57.50;;;;;;5071501;28;20474;-51
2021/07/24 10:50:52;;;;;;;16.67;7.47;;;26.20;57.40;;;;;;5070659;28;20028;-49
2021/07/24 10:53:18;;;;;;;11.50;8.48;;;26.30;57.60;;;;;;5071722;28;20068;-56
2021/07/24 10:55:46;;;;;;;11.75;7.93;;;26.30;57.50;;;;;;5071447;28;20064;-47
2021/07/24 10:58:13;;;;;;;15.27;8.43;;;26.30;57.50;;;;;;5071464;28;20115;-49
2021/07/24 11:00:42;;;;;;;16.85;7.95;;;26.30;57.20;;;;;;5070757;28;20049;-49
2021/07/24 11:03:34;;;;;;;13.52;8.20;;;26.40;57.30;;;;;;5053624;28;20063;-48
2021/07/24 11:06:19;;;;;;;18.33;8.05;;;26.50;57.00;;;;;;5053186;28;20032;-52
2021/07/24 11:09:09;;;;;;;12.50;7.78;;;26.50;57.00;;;;;;5070882;28;20032;-51
2021/07/24 11:11:40;;;;;;;14.05;7.97;;;26.40;57.40;;;;;;5054792;28;20047;-48
2021/07/24 11:14:06;;;;;;;12.82;7.95;;;26.50;57.40;;;;;;5071485;28;20040;-49
2021/07/24 11:17:06;;;;;;;12.55;7.80;;;26.50;57.30;;;;;;5070410;28;20103;-54
2021/07/24 11:19:40;;;;;;;19.45;8.93;;;26.50;57.10;;;;;;5066679;28;20470;-47
2021/07/24 11:22:14;;;;;;;11.68;7.45;;;26.50;57.10;;;;;;5070216;28;20033;-54
2021/07/24 11:24:44;;;;;;;13.05;7.47;;;26.60;57.00;;;;;;5070496;28;20039;-48
2021/07/24 11:27:10;;;;;;;10.32;7.53;;;26.70;57.10;;;;;;5070979;28;20028;-48
2021/07/24 11:29:38;;;;;;;13.70;7.32;;;26.90;56.90;;;;;;5070501;28;20025;-51
2021/07/24 11:32:04;;;;;;;10.00;6.47;;;26.80;56.30;;;;;;5070948;28;20036;-49
2021/07/24 11:34:32;;;;;;;14.15;6.32;;;26.60;55.40;;;;;;5070435;28;20147;-57
2021/07/24 11:36:59;;;;;;;12.52;5.97;;;26.70;55.40;;;;;;5070955;28;20029;-48
2021/07/24 11:39:29;;;;;;;12.95;5.95;;;26.60;55.50;;;;;;5070156;28;20111;-51
2021/07/24 11:41:56;;;;;;;10.80;6.18;;;26.50;55.40;;;;;;5070820;28;20578;-47
2021/07/24 11:44:25;;;;;;;11.50;6.38;;;26.50;55.70;;;;;;5070519;28;20393;-57
2021/07/24 11:47:02;;;;;;;11.40;6.00;;;26.40;55.20;;;;;;5069069;28;20115;-47
2021/07/24 11:49:30;;;;;;;8.23;5.72;;;26.30;55.50;;;;;;5069286;28;20115;-47
2021/07/24 11:51:56;;;;;;;9.65;6.45;;;26.30;55.50;;;;;;5071006;28;20063;-47
2021/07/24 11:54:30;;;;;;;10.48;6.15;;;26.20;55.70;;;;;;5070253;28;20442;-55
2021/07/24 11:56:56;;;;;;;9.82;6.03;;;26.20;55.90;;;;;;5070830;28;20070;-48
2021/07/24 11:59:22;;;;;;;8.55;5.40;;;26.20;55.80;;;;;;5070692;28;20052;-56
2021/07/24 12:01:47;;;;;;;9.05;5.60;;;26.20;55.90;;;;;;5070420;28;20120;-47
2021/07/24 12:04:15;;;;;;;10.32;5.93;;;26.20;56.00;;;;;;5070378;28;20363;-52
2021/07/24 12:06:59;;;;;;;6.90;5.28;;;26.20;55.20;;;;;;5069839;28;20050;-48
2021/07/24 12:09:25;;;;;;;8.50;5.57;;;26.20;55.30;;;;;;5070100;28;20129;-49
2021/07/24 12:11:58;;;;;;;7.43;5.50;;;26.10;55.30;;;;;;5070975;28;20485;-49
2021/07/24 12:14:25;;;;;;;9.07;5.70;;;26.10;55.50;;;;;;5070139;28;20028;-56
2021/07/24 12:17:10;;;;;;;8.38;5.28;;;26.10;55.30;;;;;;5070707;28;20035;-50
2021/07/24 12:19:40;;;;;;;8.30;5.00;;;26.10;55.60;;;;;;5070105;28;20028;-48
2021/07/24 12:22:16;;;;;;;6.72;5.15;;;26.20;55.10;;;;;;5062483;28;20070;-50
2021/07/24 12:24:42;;;;;;;9.70;5.88;;;26.20;54.80;;;;;;5070227;28;20028;-47
2021/07/24 12:27:10;;;;;;;8.27;6.10;;;26.20;54.80;;;;;;5070582;28;20093;-52
2021/07/24 12:29:56;;;;;;;8.93;6.03;;;26.20;54.60;;;;;;5069954;28;20040;-52
2021/07/24 12:32:23;;;;;;;7.68;5.30;;;26.20;54.40;;;;;;5070370;28;20426;-57
2021/07/24 12:34:49;;;;;;;7.32;5.47;;;26.20;54.20;;;;;;5074408;28;20035;-53
2021/07/24 12:37:28;;;;;;;11.65;5.97;;;26.20;54.30;;;;;;5074459;28;20028;-48
2021/07/24 12:39:54;;;;;;;7.97;5.50;;;26.20;54.30;;;;;;5074186;28;20032;-54
2021/07/24 12:42:31;;;;;;;10.70;5.30;;;26.20;54.70;;;;;;5074003;28;20036;-57
2021/07/24 12:44:58;;;;;;;10.15;5.53;;;26.30;53.40;;;;;;5067379;28;20032;-56
2021/07/24 12:47:24;;;;;;;9.95;6.03;;;26.30;53.30;;;;;;5073643;28;20036;-52